Danville Regional Airport Danville US
ICAO: KDAN
IATA: DAN
Category: Medium
Scheduled Services: No

Elevation: 571 ft
TransAlt. 18000 ft.

Airport Communications:
ASOS:128.125
WASHINGTON CNTR:124.05
LEESBURG RDO:122.2
CTAF/UNICOM:123.05

KDAN Zoom In..

If you have problems with the map follow the link
https://www.worldairports.se/pages/airport.php?
ICAO=KDAN

Runways:

(A) RW 02 length 6500 ft width 150 ft
ILS 110.70 / hdg 25

(B) RW 13 length 4020 ft width 100 ft
---- / hdg 134

(C) RW 20 length 6500 ft width 150 ft
---- / hdg 205

(D) RW 31 length 4020 ft width 100 ft
---- / hdg 314

Location; KDAN
Day. 18 / Time. 21.53 Zulu
* Altimeter: 30.09
* Temperature: 11° c. 51.8°f.
* Wind from: 320° Speed 04 kn.
Dewpoint: 03° c.
Visibility: 10 Statute Miles.
Clouds: Overcast 4700 ft.

KDAN 182153Z AUTO 32004KT 10SM OVC047 11/03 A3009 RMK AO2 SLP184 T01110033


Wind From 320°
Speed 04 kn.

 
 
jpsmedia.com for Web Design worldairports.se 2019   terms of use